createdAt,value
2023-03-27T00:01:11.963Z,6.73
2023-03-27T00:03:40.318Z,7.17
2023-03-27T00:06:11.382Z,6.83
2023-03-27T00:08:38.973Z,6.03
2023-03-27T00:11:08.070Z,6.50
2023-03-27T00:13:36.547Z,6.83
2023-03-27T00:16:16.569Z,6.70
2023-03-27T00:18:45.103Z,6.70
2023-03-27T00:21:12.201Z,6.80
2023-03-27T00:23:39.133Z,7.57
2023-03-27T00:26:06.354Z,6.97
2023-03-27T00:28:34.199Z,7.03
2023-03-27T00:31:02.128Z,7.30
2023-03-27T00:33:29.143Z,6.53
2023-03-27T00:35:56.457Z,6.87
2023-03-27T00:38:24.491Z,6.10
2023-03-27T00:40:54.735Z,7.30
2023-03-27T00:43:27.666Z,6.83
2023-03-27T00:46:14.966Z,7.47
2023-03-27T00:48:47.087Z,7.00
2023-03-27T00:51:15.818Z,7.07
2023-03-27T00:53:42.965Z,6.90
2023-03-27T00:56:10.658Z,7.63
2023-03-27T00:58:42.566Z,6.93
2023-03-27T01:01:13.513Z,6.43
2023-03-27T01:03:42.721Z,7.50
2023-03-27T01:06:13.960Z,6.97
2023-03-27T01:08:44.038Z,6.97
2023-03-27T01:11:22.425Z,7.60
2023-03-27T01:14:14.077Z,8.07
2023-03-27T01:17:07.594Z,7.90
2023-03-27T01:19:41.739Z,9.00
2023-03-27T01:22:30.549Z,7.00
2023-03-27T01:25:16.300Z,7.83
2023-03-27T01:27:52.426Z,7.53
2023-03-27T01:30:32.549Z,7.07
2023-03-27T01:33:26.950Z,7.90
2023-03-27T01:35:57.184Z,7.13
2023-03-27T01:38:29.982Z,7.87
2023-03-27T01:41:27.001Z,7.03
2023-03-27T01:44:01.515Z,7.60
2023-03-27T01:46:38.073Z,7.50
2023-03-27T01:49:12.496Z,7.30
2023-03-27T01:51:42.611Z,6.67
2023-03-27T01:54:16.720Z,7.47
2023-03-27T01:56:57.945Z,7.83
2023-03-27T01:59:27.189Z,7.23
2023-03-27T02:02:01.530Z,7.80
2023-03-27T02:04:43.916Z,7.43
2023-03-27T02:07:18.851Z,6.73
2023-03-27T02:09:56.038Z,7.43
2023-03-27T02:12:52.722Z,6.87
2023-03-27T02:15:25.440Z,7.80
2023-03-27T02:18:05.616Z,7.67
2023-03-27T02:20:34.651Z,8.20
2023-03-27T02:23:02.089Z,7.03
2023-03-27T02:25:37.032Z,6.77
2023-03-27T02:28:06.990Z,7.00
2023-03-27T02:30:42.835Z,7.47
2023-03-27T02:33:44.200Z,6.93
2023-03-27T02:36:49.205Z,7.53
2023-03-27T02:39:36.265Z,7.53
2023-03-27T02:42:08.053Z,7.63
2023-03-27T02:45:25.505Z,8.00
2023-03-27T02:47:58.895Z,5.97
2023-03-27T02:50:31.828Z,8.10
2023-03-27T02:53:10.620Z,6.00
2023-03-27T02:55:45.961Z,9.07
2023-03-27T02:58:23.975Z,13.03
2023-03-27T03:00:59.382Z,6.10
2023-03-27T03:03:49.036Z,6.93
2023-03-27T03:06:30.444Z,7.20
2023-03-27T03:09:06.283Z,5.40
2023-03-27T03:11:44.758Z,4.03
2023-03-27T03:14:12.310Z,4.27
2023-03-27T03:16:39.730Z,4.50
2023-03-27T03:19:06.913Z,5.00
2023-03-27T03:21:33.872Z,5.17
2023-03-27T03:24:01.201Z,6.60
2023-03-27T03:26:28.235Z,4.87
2023-03-27T03:29:00.476Z,6.20
2023-03-27T03:31:44.073Z,7.90
2023-03-27T03:34:18.483Z,7.60
2023-03-27T03:36:49.379Z,7.17
2023-03-27T03:39:22.566Z,8.90
2023-03-27T03:41:50.371Z,8.63
2023-03-27T03:44:17.646Z,8.10
2023-03-27T03:46:44.990Z,9.80
2023-03-27T03:49:12.158Z,7.90
2023-03-27T03:51:39.318Z,9.43
2023-03-27T03:54:07.146Z,8.90
2023-03-27T03:56:34.833Z,10.67
2023-03-27T03:59:01.770Z,8.80
2023-03-27T04:01:30.037Z,9.30
2023-03-27T04:04:02.257Z,9.97
2023-03-27T04:06:45.295Z,8.97
2023-03-27T04:09:12.420Z,8.87
2023-03-27T04:11:52.769Z,8.93
2023-03-27T04:14:43.930Z,8.77
2023-03-27T04:17:33.454Z,6.37
2023-03-27T04:20:02.459Z,6.57
2023-03-27T04:22:29.585Z,6.73
2023-03-27T04:24:58.041Z,7.43
2023-03-27T04:27:30.333Z,8.03
2023-03-27T04:30:14.139Z,9.10
2023-03-27T04:33:07.620Z,8.13
2023-03-27T04:36:06.056Z,8.53
2023-03-27T04:38:42.706Z,7.70
2023-03-27T04:41:11.599Z,7.83
2023-03-27T04:43:41.725Z,7.30
2023-03-27T04:46:08.977Z,6.23
2023-03-27T04:48:38.904Z,8.77
2023-03-27T04:51:20.041Z,6.97
2023-03-27T04:53:48.116Z,6.73
2023-03-27T04:56:16.195Z,7.43
2023-03-27T04:58:45.734Z,6.60
2023-03-27T05:01:15.653Z,6.30
2023-03-27T05:04:02.573Z,6.70
2023-03-27T05:06:48.053Z,5.80
2023-03-27T05:09:17.408Z,5.20
2023-03-27T05:11:49.593Z,5.60
2023-03-27T05:14:21.322Z,7.73
2023-03-27T05:16:50.728Z,6.80
2023-03-27T05:19:22.275Z,10.30
2023-03-27T05:21:58.051Z,5.87
2023-03-27T05:24:24.984Z,7.23
2023-03-27T05:26:53.279Z,6.10
2023-03-27T05:29:20.290Z,5.13
2023-03-27T05:31:54.763Z,5.77
2023-03-27T05:34:38.562Z,4.57
2023-03-27T05:37:07.415Z,4.70
2023-03-27T05:39:46.933Z,5.63
2023-03-27T05:42:15.294Z,7.87
2023-03-27T05:44:43.631Z,8.73
2023-03-27T05:47:12.855Z,10.20
2023-03-27T05:49:40.808Z,10.53
2023-03-27T05:52:12.154Z,10.47
2023-03-27T05:54:39.103Z,12.73
2023-03-27T05:57:10.623Z,11.37
2023-03-27T05:59:39.765Z,13.57
2023-03-27T06:02:25.575Z,11.93
2023-03-27T06:04:59.329Z,11.33
2023-03-27T06:07:43.139Z,11.53
2023-03-27T06:10:14.339Z,11.50
2023-03-27T06:13:06.469Z,11.00
2023-03-27T06:15:43.271Z,10.40
2023-03-27T06:18:18.752Z,10.50
2023-03-27T06:20:45.801Z,11.07
2023-03-27T06:23:12.994Z,11.33
2023-03-27T06:25:40.952Z,11.73
2023-03-27T06:28:11.216Z,10.60
2023-03-27T06:30:50.004Z,9.73
2023-03-27T06:33:46.976Z,11.70
2023-03-27T06:36:27.401Z,10.60
2023-03-27T06:38:56.380Z,11.83
2023-03-27T06:41:23.954Z,10.07
2023-03-27T06:44:04.437Z,11.50
2023-03-27T06:46:47.576Z,10.87
2023-03-27T06:49:21.516Z,10.50
2023-03-27T06:51:49.059Z,10.77
2023-03-27T06:54:16.676Z,10.77
2023-03-27T06:56:50.650Z,9.73
2023-03-27T06:59:20.726Z,10.83
2023-03-27T07:01:52.733Z,10.10
2023-03-27T07:04:35.041Z,9.53
2023-03-27T07:07:12.384Z,9.50
2023-03-27T07:09:42.782Z,9.17
2023-03-27T07:12:13.672Z,9.67
2023-03-27T07:14:43.147Z,9.80
2023-03-27T07:17:10.036Z,8.83
2023-03-27T07:19:51.916Z,8.40
2023-03-27T07:22:23.977Z,8.53
2023-03-27T07:24:50.966Z,8.90
2023-03-27T07:27:19.229Z,9.53
2023-03-27T07:29:47.013Z,8.50
2023-03-27T07:32:29.721Z,8.57
2023-03-27T07:35:05.688Z,8.93
2023-03-27T07:37:53.977Z,9.00
2023-03-27T07:40:39.822Z,9.63
2023-03-27T07:43:39.698Z,8.37
2023-03-27T07:46:07.815Z,7.83
2023-03-27T07:48:35.944Z,8.00
2023-03-27T07:51:13.256Z,8.67
2023-03-27T07:53:41.978Z,7.60
2023-03-27T07:56:29.120Z,7.47
2023-03-27T07:59:32.305Z,7.27
2023-03-27T08:02:15.971Z,7.73
2023-03-27T08:04:43.177Z,6.83
2023-03-27T08:07:11.669Z,6.30
2023-03-27T08:09:41.581Z,6.97
2023-03-27T08:12:09.058Z,6.07
2023-03-27T08:14:41.298Z,6.97
2023-03-27T08:17:36.083Z,7.67
2023-03-27T08:20:09.131Z,7.10
2023-03-27T08:22:44.633Z,6.30
2023-03-27T08:25:33.323Z,6.10
2023-03-27T08:28:03.092Z,6.03
2023-03-27T08:30:31.098Z,6.00
2023-03-27T08:33:00.140Z,6.23
2023-03-27T08:35:27.691Z,6.20
2023-03-27T08:37:55.063Z,5.67
2023-03-27T08:40:32.116Z,5.90
2023-03-27T08:43:23.286Z,5.70
2023-03-27T08:45:56.751Z,6.43
2023-03-27T08:48:50.711Z,5.40
2023-03-27T08:51:25.042Z,6.07
2023-03-27T08:53:57.899Z,5.60
2023-03-27T08:56:28.970Z,5.93
2023-03-27T08:58:57.262Z,4.67
2023-03-27T09:01:36.588Z,5.23
2023-03-27T09:04:20.916Z,5.70
2023-03-27T09:06:55.958Z,5.83
2023-03-27T09:09:59.294Z,5.00
2023-03-27T09:12:31.842Z,5.27
2023-03-27T09:15:15.889Z,5.27
2023-03-27T09:17:53.914Z,4.57
2023-03-27T09:20:32.329Z,5.03
2023-03-27T09:23:16.165Z,4.87
2023-03-27T09:26:07.673Z,5.10
2023-03-27T09:29:04.109Z,4.67
2023-03-27T09:31:47.682Z,4.60
2023-03-27T09:34:18.991Z,4.60
2023-03-27T09:36:46.688Z,4.17
2023-03-27T09:39:22.051Z,3.97
2023-03-27T09:42:11.178Z,3.93
2023-03-27T09:44:42.479Z,4.83
2023-03-27T09:47:16.520Z,3.80
2023-03-27T09:50:02.134Z,3.93
2023-03-27T09:52:49.059Z,4.27
2023-03-27T09:55:32.308Z,3.60
2023-03-27T09:58:23.349Z,4.10
2023-03-27T10:01:10.456Z,4.03
2023-03-27T10:03:51.304Z,4.37
2023-03-27T10:06:38.790Z,3.90
2023-03-27T10:09:27.255Z,4.50
2023-03-27T10:12:08.254Z,4.00
2023-03-27T10:14:47.327Z,4.00
2023-03-27T10:17:33.056Z,4.30
2023-03-27T10:20:14.076Z,4.13
2023-03-27T10:22:51.509Z,4.23
2023-03-27T10:25:34.219Z,4.07
2023-03-27T10:28:27.072Z,3.47
2023-03-27T10:31:29.886Z,3.87
2023-03-27T10:34:36.734Z,3.43
2023-03-27T10:37:34.379Z,3.60
2023-03-27T10:40:33.192Z,3.20
2023-03-27T10:43:30.778Z,2.97
2023-03-27T10:46:05.987Z,2.93
2023-03-27T10:49:28.751Z,3.37
2023-03-27T10:52:19.009Z,2.93
2023-03-27T10:55:17.341Z,3.00
2023-03-27T10:57:49.912Z,3.60
2023-03-27T11:00:41.037Z,2.70
2023-03-27T11:03:22.307Z,2.83
2023-03-27T11:06:00.758Z,2.93
2023-03-27T11:08:53.193Z,2.80
2023-03-27T11:11:37.832Z,2.50
2023-03-27T11:14:12.083Z,2.17
2023-03-27T11:16:44.302Z,2.23
2023-03-27T11:19:11.381Z,1.97
2023-03-27T11:22:32.578Z,1.90
2023-03-27T11:25:07.792Z,2.27
2023-03-27T11:28:03.285Z,2.10
2023-03-27T11:31:13.217Z,1.60
2023-03-27T11:34:06.239Z,1.80
2023-03-27T11:36:43.456Z,1.90
2023-03-27T11:39:36.676Z,1.67
2023-03-27T11:42:17.960Z,1.87
2023-03-27T11:44:48.768Z,1.80
2023-03-27T11:47:43.742Z,1.47
2023-03-27T11:50:27.925Z,2.07
2023-03-27T11:53:33.576Z,1.97
2023-03-27T11:56:41.482Z,1.50
2023-03-27T11:59:41.992Z,1.47
2023-03-27T12:02:33.419Z,1.63
2023-03-27T12:05:38.507Z,1.90
2023-03-27T12:08:22.804Z,1.53
2023-03-27T12:10:54.316Z,1.23
2023-03-27T12:13:58.174Z,1.00
2023-03-27T12:16:56.145Z,1.00
2023-03-27T12:19:39.009Z,1.30
2023-03-27T12:22:47.642Z,0.80
2023-03-27T12:26:12.472Z,0.63
2023-03-27T12:29:31.132Z,0.43
2023-03-27T12:32:49.641Z,0.43
2023-03-27T12:35:22.890Z,0.40
2023-03-27T12:38:12.268Z,0.30
2023-03-27T12:40:47.747Z,0.40
2023-03-27T12:43:33.821Z,0.40
2023-03-27T12:46:26.322Z,0.40
2023-03-27T12:49:01.180Z,0.50
2023-03-27T12:51:43.226Z,0.30
2023-03-27T12:54:25.925Z,0.20
2023-03-27T12:57:19.058Z,0.30
2023-03-27T12:59:49.112Z,0.30
2023-03-27T13:02:39.859Z,0.30
2023-03-27T13:05:42.366Z,0.30
2023-03-27T13:08:49.323Z,0.30
2023-03-27T13:11:49.613Z,0.50
2023-03-27T13:15:11.987Z,0.50
2023-03-27T13:17:39.782Z,0.60
2023-03-27T13:20:10.344Z,0.30
2023-03-27T13:22:49.402Z,0.30
2023-03-27T13:25:21.733Z,0.50
2023-03-27T13:28:23.610Z,2.63
2023-03-27T13:31:05.370Z,1.77
2023-03-27T13:34:29.399Z,0.30
2023-03-27T13:37:07.739Z,0.60
2023-03-27T13:39:45.666Z,0.40
2023-03-27T13:42:21.226Z,0.97
2023-03-27T13:45:02.099Z,0.70
2023-03-27T13:47:44.853Z,0.40
2023-03-27T13:50:23.816Z,0.40
2023-03-27T13:53:23.810Z,0.20
2023-03-27T13:56:29.277Z,0.40
2023-03-27T13:59:38.603Z,0.30
2023-03-27T14:02:41.370Z,0.30
2023-03-27T14:05:42.281Z,0.60
2023-03-27T14:08:40.610Z,0.60
2023-03-27T14:11:37.904Z,0.40
2023-03-27T14:14:38.518Z,0.40
2023-03-27T14:17:41.572Z,0.30
2023-03-27T14:20:11.773Z,0.30
2023-03-27T14:22:42.558Z,0.50
2023-03-27T14:25:14.832Z,0.37
2023-03-27T14:27:55.394Z,0.50
2023-03-27T14:30:32.664Z,0.30
2023-03-27T14:33:20.416Z,0.33
2023-03-27T14:35:57.280Z,0.30
2023-03-27T14:38:32.091Z,0.40
2023-03-27T14:41:05.790Z,0.33
2023-03-27T14:43:48.778Z,0.40
2023-03-27T14:46:17.020Z,0.50
2023-03-27T14:48:47.324Z,0.20
2023-03-27T14:51:25.111Z,0.20
2023-03-27T14:53:59.744Z,0.70
2023-03-27T14:56:42.016Z,0.80
2023-03-27T14:59:40.744Z,0.73
2023-03-27T15:02:26.687Z,0.40
2023-03-27T15:05:08.467Z,0.53
2023-03-27T15:07:37.473Z,0.40
2023-03-27T15:10:31.595Z,0.20
2023-03-27T15:13:35.945Z,0.30
2023-03-27T15:16:06.677Z,0.30
2023-03-27T15:18:43.098Z,0.50
2023-03-27T15:21:20.890Z,0.20
2023-03-27T15:24:00.969Z,0.37
2023-03-27T15:26:35.038Z,0.40
2023-03-27T15:29:18.633Z,0.47
2023-03-27T15:31:49.089Z,0.67
2023-03-27T15:34:34.506Z,0.60
2023-03-27T15:37:10.002Z,0.60
2023-03-27T15:39:52.132Z,0.53
2023-03-27T15:42:20.892Z,0.30
2023-03-27T15:44:47.835Z,0.40
2023-03-27T15:47:26.828Z,0.40
2023-03-27T15:50:22.521Z,0.40
2023-03-27T15:52:51.366Z,0.40
2023-03-27T15:55:42.212Z,0.70
2023-03-27T15:58:27.523Z,0.30
2023-03-27T16:01:00.662Z,0.50
2023-03-27T16:03:33.214Z,0.30
2023-03-27T16:06:02.793Z,0.27
2023-03-27T16:08:37.495Z,0.30
2023-03-27T16:11:06.393Z,0.30
2023-03-27T16:13:41.992Z,0.60
2023-03-27T16:16:23.044Z,0.47
2023-03-27T16:18:51.348Z,0.40
2023-03-27T16:21:23.186Z,0.40
2023-03-27T16:23:50.326Z,0.50
2023-03-27T16:26:22.070Z,0.50
2023-03-27T16:28:49.158Z,0.50
2023-03-27T16:31:19.177Z,0.20
2023-03-27T16:33:46.483Z,0.50
2023-03-27T16:36:30.425Z,0.37
2023-03-27T16:38:57.542Z,0.30
2023-03-27T16:41:24.418Z,0.37
2023-03-27T16:43:51.367Z,0.60
2023-03-27T16:46:24.306Z,0.60
2023-03-27T16:48:52.780Z,0.40
2023-03-27T16:51:22.083Z,0.20
2023-03-27T16:53:49.153Z,0.60
2023-03-27T16:56:16.294Z,0.23
2023-03-27T16:58:43.234Z,0.20
2023-03-27T17:01:10.408Z,0.37
2023-03-27T17:03:37.908Z,0.33
2023-03-27T17:06:10.164Z,0.33
2023-03-27T17:08:37.395Z,0.40
2023-03-27T17:11:06.833Z,0.60
2023-03-27T17:13:34.074Z,0.40
2023-03-27T17:16:01.191Z,0.23
2023-03-27T17:18:28.488Z,0.30
2023-03-27T17:20:55.396Z,0.70
2023-03-27T17:23:22.791Z,0.47
2023-03-27T17:25:50.302Z,0.37
2023-03-27T17:28:17.742Z,0.20
2023-03-27T17:30:56.778Z,0.30
2023-03-27T17:33:28.572Z,0.40
2023-03-27T17:35:57.232Z,0.50
2023-03-27T17:38:24.605Z,0.40
2023-03-27T17:40:51.886Z,0.30
2023-03-27T17:43:18.894Z,0.30
2023-03-27T17:45:46.158Z,0.27
2023-03-27T17:48:13.057Z,0.23
2023-03-27T17:50:40.130Z,0.20
2023-03-27T17:53:07.958Z,0.20
2023-03-27T17:55:37.901Z,0.10
2023-03-27T17:58:09.688Z,0.20
2023-03-27T18:00:38.601Z,0.33
2023-03-27T18:03:06.684Z,0.33
2023-03-27T18:05:41.543Z,0.30
2023-03-27T18:08:10.814Z,0.10
2023-03-27T18:10:44.149Z,0.30
2023-03-27T18:13:11.929Z,0.30
2023-03-27T18:15:40.794Z,0.30
2023-03-27T18:18:08.185Z,0.30
2023-03-27T18:20:35.762Z,0.20
2023-03-27T18:23:03.124Z,0.27
2023-03-27T18:25:30.620Z,0.30
2023-03-27T18:27:57.702Z,0.30
2023-03-27T18:30:24.817Z,0.20
2023-03-27T18:32:52.317Z,0.40
2023-03-27T18:35:20.611Z,0.20
2023-03-27T18:37:47.645Z,0.20
2023-03-27T18:40:16.678Z,0.27
2023-03-27T18:42:46.622Z,0.40
2023-03-27T18:45:15.523Z,0.23
2023-03-27T18:47:44.157Z,0.20
2023-03-27T18:50:13.158Z,0.30
2023-03-27T18:52:41.756Z,0.30
2023-03-27T18:55:11.224Z,0.50
2023-03-27T18:57:38.248Z,0.30
2023-03-27T19:00:15.076Z,0.77
2023-03-27T19:02:42.848Z,0.50
2023-03-27T19:05:10.195Z,0.30
2023-03-27T19:07:37.831Z,0.17
2023-03-27T19:10:12.855Z,0.30
2023-03-27T19:12:39.936Z,0.20
2023-03-27T19:15:27.176Z,0.50
2023-03-27T19:18:25.112Z,0.70
2023-03-27T19:21:13.362Z,0.50
2023-03-27T19:23:53.281Z,0.20
2023-03-27T19:26:23.931Z,0.40
2023-03-27T19:28:50.998Z,0.40
2023-03-27T19:31:18.232Z,0.80
2023-03-27T19:33:45.864Z,0.40
2023-03-27T19:36:12.928Z,0.83
2023-03-27T19:38:40.121Z,0.70
2023-03-27T19:41:11.057Z,0.50
2023-03-27T19:43:38.015Z,0.67
2023-03-27T19:46:15.929Z,0.70
2023-03-27T19:48:49.782Z,1.20
2023-03-27T19:51:28.412Z,0.87
2023-03-27T19:53:55.523Z,1.30
2023-03-27T19:56:24.990Z,1.30
2023-03-27T19:58:52.326Z,1.70
2023-03-27T20:01:20.101Z,1.93
2023-03-27T20:03:47.299Z,1.80
2023-03-27T20:06:18.932Z,3.30
2023-03-27T20:08:46.321Z,3.90
2023-03-27T20:11:15.424Z,3.93
2023-03-27T20:13:55.614Z,3.70
2023-03-27T20:16:26.478Z,3.93
2023-03-27T20:19:04.600Z,5.10
2023-03-27T20:21:35.091Z,4.53
2023-03-27T20:24:05.838Z,5.10
2023-03-27T20:26:39.405Z,6.10
2023-03-27T20:29:18.755Z,5.33
2023-03-27T20:31:46.411Z,4.20
2023-03-27T20:34:14.280Z,2.90
2023-03-27T20:36:41.228Z,2.10
2023-03-27T20:39:22.968Z,0.93
2023-03-27T20:41:51.470Z,0.83
2023-03-27T20:44:18.445Z,0.77
2023-03-27T20:46:51.898Z,0.50
2023-03-27T20:49:40.084Z,0.60
2023-03-27T20:52:09.130Z,0.50
2023-03-27T20:54:36.540Z,0.73
2023-03-27T20:57:03.657Z,0.70
2023-03-27T20:59:31.099Z,0.43
2023-03-27T21:01:59.489Z,0.50
2023-03-27T21:04:28.885Z,0.60
2023-03-27T21:06:57.754Z,0.47
2023-03-27T21:09:26.724Z,0.70
2023-03-27T21:11:55.365Z,1.07
2023-03-27T21:14:22.464Z,1.07
2023-03-27T21:16:49.647Z,0.87
2023-03-27T21:19:17.145Z,0.60
2023-03-27T21:21:45.176Z,0.60
2023-03-27T21:24:13.278Z,0.60
2023-03-27T21:26:41.505Z,0.60
2023-03-27T21:29:11.438Z,0.50
2023-03-27T21:31:43.113Z,0.60
2023-03-27T21:34:10.375Z,0.80
2023-03-27T21:36:37.998Z,0.60
2023-03-27T21:39:05.606Z,0.70
2023-03-27T21:41:32.604Z,0.70
2023-03-27T21:43:59.606Z,0.83
2023-03-27T21:46:26.726Z,0.57
2023-03-27T21:48:53.750Z,0.70
2023-03-27T21:51:21.010Z,0.70
2023-03-27T21:53:48.100Z,0.40
2023-03-27T21:56:15.326Z,0.80
2023-03-27T21:58:42.277Z,0.60
2023-03-27T22:01:09.252Z,0.60
2023-03-27T22:03:36.223Z,0.70
2023-03-27T22:08:38.284Z,0.93
2023-03-27T22:11:05.395Z,0.73
2023-03-27T22:13:33.995Z,0.63
2023-03-27T22:16:01.625Z,0.70
2023-03-27T22:18:31.404Z,0.60
2023-03-27T22:20:58.283Z,0.80
2023-03-27T22:23:25.401Z,0.60
2023-03-27T22:25:53.996Z,0.70
2023-03-27T22:28:21.053Z,0.60
2023-03-27T22:30:48.276Z,0.90
2023-03-27T22:33:15.381Z,0.73
2023-03-27T22:35:48.917Z,0.80
2023-03-27T22:38:16.606Z,0.67
2023-03-27T22:40:43.897Z,0.93
2023-03-27T22:43:10.825Z,0.60
2023-03-27T22:45:50.253Z,0.90
2023-03-27T22:48:17.186Z,0.77
2023-03-27T22:50:44.394Z,0.60
2023-03-27T22:53:11.390Z,0.80
2023-03-27T22:55:38.434Z,0.80
2023-03-27T22:58:05.315Z,0.60
2023-03-27T23:00:32.296Z,0.77
2023-03-27T23:02:59.329Z,0.80
2023-03-27T23:05:26.333Z,0.60
2023-03-27T23:07:53.202Z,0.63
2023-03-27T23:10:20.444Z,0.70
2023-03-27T23:12:47.353Z,1.00
2023-03-27T23:15:14.610Z,0.90
2023-03-27T23:17:41.497Z,1.43
2023-03-27T23:20:08.806Z,0.83
2023-03-27T23:22:35.762Z,0.60
2023-03-27T23:25:02.817Z,0.87
2023-03-27T23:27:29.703Z,0.60
2023-03-27T23:29:56.694Z,0.80
2023-03-27T23:32:23.718Z,0.80
2023-03-27T23:34:50.745Z,0.93
2023-03-27T23:37:17.619Z,0.70
2023-03-27T23:39:44.607Z,0.90
2023-03-27T23:42:11.728Z,0.80
2023-03-27T23:44:38.702Z,0.90
2023-03-27T23:47:05.985Z,1.00
2023-03-27T23:49:32.925Z,0.83
2023-03-27T23:52:00.098Z,0.73
2023-03-27T23:54:27.069Z,0.90
2023-03-27T23:56:53.983Z,1.13
2023-03-27T23:59:21.163Z,1.00
